sensor_id;sensor_type;location;lat;lon;timestamp;pressure;altitude;pressure_sealevel;temperature
70415;BMP280;57837;52.064;113.478;2023-06-24T00:01:21;92865.50;;;31.69
70415;BMP280;57837;52.064;113.478;2023-06-24T00:04:26;92867.03;;;30.34
70415;BMP280;57837;52.064;113.478;2023-06-24T00:07:30;92872.31;;;29.31
70415;BMP280;57837;52.064;113.478;2023-06-24T00:10:34;92883.50;;;29.53
70415;BMP280;57837;52.064;113.478;2023-06-24T00:13:41;92899.69;;;30.19
70415;BMP280;57837;52.064;113.478;2023-06-24T00:16:45;92904.28;;;31.68
70415;BMP280;57837;52.064;113.478;2023-06-24T00:19:52;92885.09;;;33.49
70415;BMP280;57837;52.064;113.478;2023-06-24T00:22:58;92890.19;;;34.35
70415;BMP280;57837;52.064;113.478;2023-06-24T00:26:02;92904.50;;;34.79
70415;BMP280;57837;52.064;113.478;2023-06-24T00:29:07;92898.81;;;35.55
70415;BMP280;57837;52.064;113.478;2023-06-24T00:32:11;92900.06;;;36.75
70415;BMP280;57837;52.064;113.478;2023-06-24T00:35:15;92896.44;;;37.53
70415;BMP280;57837;52.064;113.478;2023-06-24T00:38:19;92902.47;;;37.50
70415;BMP280;57837;52.064;113.478;2023-06-24T00:41:24;92891.97;;;37.04
70415;BMP280;57837;52.064;113.478;2023-06-24T00:44:28;92901.09;;;36.91
70415;BMP280;57837;52.064;113.478;2023-06-24T00:47:34;92887.94;;;37.05
70415;BMP280;57837;52.064;113.478;2023-06-24T00:50:38;92885.97;;;36.80
70415;BMP280;57837;52.064;113.478;2023-06-24T00:53:45;92870.66;;;36.89
70415;BMP280;57837;52.064;113.478;2023-06-24T00:56:53;92878.03;;;36.59
70415;BMP280;57837;52.064;113.478;2023-06-24T00:59:59;92879.69;;;36.70
70415;BMP280;57837;52.064;113.478;2023-06-24T01:03:03;92869.00;;;36.48
70415;BMP280;57837;52.064;113.478;2023-06-24T01:06:08;92885.59;;;35.87
70415;BMP280;57837;52.064;113.478;2023-06-24T01:09:12;92869.06;;;38.03
70415;BMP280;57837;52.064;113.478;2023-06-24T01:12:17;92870.97;;;38.73
70415;BMP280;57837;52.064;113.478;2023-06-24T01:15:21;92869.31;;;39.00
70415;BMP280;57837;52.064;113.478;2023-06-24T02:08:48;92800.69;;;33.54
70415;BMP280;57837;52.064;113.478;2023-06-24T02:11:57;92800.00;;;33.18
70415;BMP280;57837;52.064;113.478;2023-06-24T02:15:01;92808.72;;;34.11
70415;BMP280;57837;52.064;113.478;2023-06-24T02:18:08;92816.88;;;35.65
70415;BMP280;57837;52.064;113.478;2023-06-24T02:21:12;92811.47;;;37.29
70415;BMP280;57837;52.064;113.478;2023-06-24T02:24:20;92797.81;;;36.33
70415;BMP280;57837;52.064;113.478;2023-06-24T02:27:24;92802.00;;;34.30
70415;BMP280;57837;52.064;113.478;2023-06-24T02:30:28;92792.88;;;33.25
70415;BMP280;57837;52.064;113.478;2023-06-24T02:33:32;92797.38;;;33.56
70415;BMP280;57837;52.064;113.478;2023-06-24T02:36:35;92797.94;;;32.99
70415;BMP280;57837;52.064;113.478;2023-06-24T02:39:39;92805.66;;;32.74
70415;BMP280;57837;52.064;113.478;2023-06-24T02:42:47;92805.16;;;33.67
70415;BMP280;57837;52.064;113.478;2023-06-24T02:45:50;92807.00;;;35.26
70415;BMP280;57837;52.064;113.478;2023-06-24T02:48:56;92783.06;;;35.60
70415;BMP280;57837;52.064;113.478;2023-06-24T02:52:01;92790.44;;;34.90
70415;BMP280;57837;52.064;113.478;2023-06-24T02:55:07;92796.66;;;35.64
70415;BMP280;57837;52.064;113.478;2023-06-24T02:58:20;92788.56;;;35.64
70415;BMP280;57837;52.064;113.478;2023-06-24T03:01:36;92787.69;;;35.81
70415;BMP280;57837;52.064;113.478;2023-06-24T03:04:42;92791.31;;;34.32
70415;BMP280;57837;52.064;113.478;2023-06-24T03:07:46;92802.84;;;33.40
70415;BMP280;57837;52.064;113.478;2023-06-24T03:10:51;92799.03;;;32.59
70415;BMP280;57837;52.064;113.478;2023-06-24T03:13:59;92805.84;;;32.13
70415;BMP280;57837;52.064;113.478;2023-06-24T03:17:13;92810.13;;;31.58
70415;BMP280;57837;52.064;113.478;2023-06-24T03:20:18;92813.63;;;31.47
70415;BMP280;57837;52.064;113.478;2023-06-24T03:23:23;92823.09;;;31.34
70415;BMP280;57837;52.064;113.478;2023-06-24T03:26:54;92827.16;;;30.92
70415;BMP280;57837;52.064;113.478;2023-06-24T03:30:10;92832.19;;;30.04
70415;BMP280;57837;52.064;113.478;2023-06-24T03:33:14;92836.91;;;29.42
70415;BMP280;57837;52.064;113.478;2023-06-24T03:36:20;92833.19;;;28.99
70415;BMP280;57837;52.064;113.478;2023-06-24T03:39:25;92830.75;;;28.68
70415;BMP280;57837;52.064;113.478;2023-06-24T03:42:30;92840.25;;;28.71
70415;BMP280;57837;52.064;113.478;2023-06-24T03:45:33;92838.47;;;28.62
70415;BMP280;57837;52.064;113.478;2023-06-24T03:48:38;92843.41;;;28.33
70415;BMP280;57837;52.064;113.478;2023-06-24T03:51:41;92844.28;;;28.02
70415;BMP280;57837;52.064;113.478;2023-06-24T03:54:45;92842.66;;;27.97
70415;BMP280;57837;52.064;113.478;2023-06-24T03:57:49;92846.00;;;27.98
70415;BMP280;57837;52.064;113.478;2023-06-24T04:00:53;92846.50;;;28.06
70415;BMP280;57837;52.064;113.478;2023-06-24T04:04:00;92843.28;;;28.19
70415;BMP280;57837;52.064;113.478;2023-06-24T04:07:04;92835.41;;;28.33
70415;BMP280;57837;52.064;113.478;2023-06-24T04:10:11;92840.47;;;28.05
70415;BMP280;57837;52.064;113.478;2023-06-24T04:13:18;92857.16;;;28.17
70415;BMP280;57837;52.064;113.478;2023-06-24T04:16:22;92850.94;;;28.59
70415;BMP280;57837;52.064;113.478;2023-06-24T04:19:28;92844.78;;;28.92
70415;BMP280;57837;52.064;113.478;2023-06-24T04:22:32;92855.16;;;29.22
70415;BMP280;57837;52.064;113.478;2023-06-24T04:25:37;92860.34;;;29.43
70415;BMP280;57837;52.064;113.478;2023-06-24T04:28:41;92847.88;;;29.73
70415;BMP280;57837;52.064;113.478;2023-06-24T04:31:44;92856.16;;;29.91
70415;BMP280;57837;52.064;113.478;2023-06-24T04:34:47;92849.75;;;30.21
70415;BMP280;57837;52.064;113.478;2023-06-24T04:37:51;92859.06;;;30.88
70415;BMP280;57837;52.064;113.478;2023-06-24T04:40:54;92861.19;;;31.32
70415;BMP280;57837;52.064;113.478;2023-06-24T04:43:58;92856.66;;;31.21
70415;BMP280;57837;52.064;113.478;2023-06-24T04:47:01;92861.53;;;30.43
70415;BMP280;57837;52.064;113.478;2023-06-24T04:50:05;92855.34;;;30.14
70415;BMP280;57837;52.064;113.478;2023-06-24T04:53:09;92851.63;;;29.93
70415;BMP280;57837;52.064;113.478;2023-06-24T04:56:13;92859.00;;;29.44
70415;BMP280;57837;52.064;113.478;2023-06-24T04:59:17;92853.03;;;28.84
70415;BMP280;57837;52.064;113.478;2023-06-24T05:02:20;92850.94;;;28.59
70415;BMP280;57837;52.064;113.478;2023-06-24T05:05:24;92843.75;;;28.39
70415;BMP280;57837;52.064;113.478;2023-06-24T05:08:28;92845.16;;;27.95
70415;BMP280;57837;52.064;113.478;2023-06-24T05:11:32;92838.59;;;27.63
70415;BMP280;57837;52.064;113.478;2023-06-24T05:14:36;92836.81;;;27.56
70415;BMP280;57837;52.064;113.478;2023-06-24T05:17:39;92833.50;;;27.35
70415;BMP280;57837;52.064;113.478;2023-06-24T05:20:43;92842.47;;;27.09
70415;BMP280;57837;52.064;113.478;2023-06-24T05:23:46;92848.31;;;26.95
70415;BMP280;57837;52.064;113.478;2023-06-24T05:26:50;92866.63;;;26.91
70415;BMP280;57837;52.064;113.478;2023-06-24T05:29:54;92861.88;;;26.90
70415;BMP280;57837;52.064;113.478;2023-06-24T05:32:58;92861.63;;;26.86
70415;BMP280;57837;52.064;113.478;2023-06-24T05:36:02;92863.63;;;26.76
70415;BMP280;57837;52.064;113.478;2023-06-24T05:39:06;92859.81;;;26.88
70415;BMP280;57837;52.064;113.478;2023-06-24T05:42:12;92857.00;;;27.17
70415;BMP280;57837;52.064;113.478;2023-06-24T05:45:16;92868.56;;;27.22
70415;BMP280;57837;52.064;113.478;2023-06-24T05:48:20;92863.56;;;27.37
70415;BMP280;57837;52.064;113.478;2023-06-24T05:51:24;92859.72;;;27.50
70415;BMP280;57837;52.064;113.478;2023-06-24T05:54:28;92849.63;;;27.70
70415;BMP280;57837;52.064;113.478;2023-06-24T05:57:32;92850.59;;;27.53
70415;BMP280;57837;52.064;113.478;2023-06-24T06:00:36;92847.88;;;27.41
70415;BMP280;57837;52.064;113.478;2023-06-24T06:03:40;92847.56;;;27.26
70415;BMP280;57837;52.064;113.478;2023-06-24T06:06:44;92849.47;;;27.14
70415;BMP280;57837;52.064;113.478;2023-06-24T06:09:48;92853.19;;;27.20
70415;BMP280;57837;52.064;113.478;2023-06-24T06:12:51;92851.72;;;27.29
70415;BMP280;57837;52.064;113.478;2023-06-24T06:15:57;92859.00;;;27.49
70415;BMP280;57837;52.064;113.478;2023-06-24T06:19:01;92859.72;;;27.50
70415;BMP280;57837;52.064;113.478;2023-06-24T06:22:05;92856.53;;;27.63
70415;BMP280;57837;52.064;113.478;2023-06-24T06:25:08;92853.25;;;27.86
70415;BMP280;57837;52.064;113.478;2023-06-24T06:28:11;92852.91;;;27.80
70415;BMP280;57837;52.064;113.478;2023-06-24T06:31:15;92855.00;;;27.60
70415;BMP280;57837;52.064;113.478;2023-06-24T06:34:20;92845.59;;;27.26
70415;BMP280;57837;52.064;113.478;2023-06-24T06:37:23;92837.31;;;27.11
70415;BMP280;57837;52.064;113.478;2023-06-24T06:40:27;92848.09;;;26.72
70415;BMP280;57837;52.064;113.478;2023-06-24T06:43:32;92840.34;;;26.55
70415;BMP280;57837;52.064;113.478;2023-06-24T06:46:35;92846.97;;;26.44
70415;BMP280;57837;52.064;113.478;2023-06-24T06:49:39;92836.91;;;26.74
70415;BMP280;57837;52.064;113.478;2023-06-24T06:52:42;92846.63;;;26.90
70415;BMP280;57837;52.064;113.478;2023-06-24T06:55:46;92839.91;;;26.89
70415;BMP280;57837;52.064;113.478;2023-06-24T06:58:49;92833.88;;;26.68
70415;BMP280;57837;52.064;113.478;2023-06-24T07:01:52;92833.78;;;26.87
70415;BMP280;57837;52.064;113.478;2023-06-24T07:04:56;92824.06;;;27.01
70415;BMP280;57837;52.064;113.478;2023-06-24T07:07:59;92819.09;;;26.95
70415;BMP280;57837;52.064;113.478;2023-06-24T07:11:03;92823.44;;;27.12
70415;BMP280;57837;52.064;113.478;2023-06-24T07:14:06;92816.03;;;27.11
70415;BMP280;57837;52.064;113.478;2023-06-24T07:17:10;92812.28;;;27.04
70415;BMP280;57837;52.064;113.478;2023-06-24T07:20:14;92812.28;;;27.04
70415;BMP280;57837;52.064;113.478;2023-06-24T07:23:17;92806.47;;;26.96
70415;BMP280;57837;52.064;113.478;2023-06-24T07:26:20;92802.75;;;26.80
70415;BMP280;57837;52.064;113.478;2023-06-24T07:29:23;92794.63;;;26.87
70415;BMP280;57837;52.064;113.478;2023-06-24T07:32:26;92801.91;;;27.08
70415;BMP280;57837;52.064;113.478;2023-06-24T07:35:30;92794.50;;;27.07
70415;BMP280;57837;52.064;113.478;2023-06-24T07:38:33;92795.16;;;27.17
70415;BMP280;57837;52.064;113.478;2023-06-24T07:41:37;92793.59;;;27.35
70415;BMP280;57837;52.064;113.478;2023-06-24T07:44:42;92788.94;;;27.45
70415;BMP280;57837;52.064;113.478;2023-06-24T07:47:46;92783.75;;;27.26
70415;BMP280;57837;52.064;113.478;2023-06-24T07:50:50;92777.94;;;27.18
70415;BMP280;57837;52.064;113.478;2023-06-24T07:53:54;92773.19;;;27.16
70415;BMP280;57837;52.064;113.478;2023-06-24T07:56:57;92765.47;;;27.20
70415;BMP280;57837;52.064;113.478;2023-06-24T08:00:02;92755.47;;;27.09
70415;BMP280;57837;52.064;113.478;2023-06-24T08:03:13;92747.31;;;27.17
70415;BMP280;57837;52.064;113.478;2023-06-24T08:06:17;92745.41;;;27.08
70415;BMP280;57837;52.064;113.478;2023-06-24T08:09:20;92734.47;;;26.92
70415;BMP280;57837;52.064;113.478;2023-06-24T08:12:24;92743.59;;;26.89
70415;BMP280;57837;52.064;113.478;2023-06-24T08:15:28;92725.81;;;26.70
70415;BMP280;57837;52.064;113.478;2023-06-24T08:18:31;92717.94;;;26.72
70415;BMP280;57837;52.064;113.478;2023-06-24T08:21:34;92723.91;;;26.30
70415;BMP280;57837;52.064;113.478;2023-06-24T08:24:40;92705.44;;;26.11
70415;BMP280;57837;52.064;113.478;2023-06-24T08:27:43;92713.13;;;26.07
70415;BMP280;57837;52.064;113.478;2023-06-24T08:30:50;92710.19;;;26.03
70415;BMP280;57837;52.064;113.478;2023-06-24T08:33:53;92709.75;;;26.07
70415;BMP280;57837;52.064;113.478;2023-06-24T08:36:59;92708.72;;;26.21
70415;BMP280;57837;52.064;113.478;2023-06-24T08:40:03;92715.25;;;26.30
70415;BMP280;57837;52.064;113.478;2023-06-24T08:43:07;92715.94;;;26.30
70415;BMP280;57837;52.064;113.478;2023-06-24T08:46:12;92712.47;;;26.28
70415;BMP280;57837;52.064;113.478;2023-06-24T08:49:24;92705.88;;;26.29
70415;BMP280;57837;52.064;113.478;2023-06-24T08:52:35;92708.25;;;26.34
70415;BMP280;57837;52.064;113.478;2023-06-24T08:55:44;92708.66;;;26.40
70415;BMP280;57837;52.064;113.478;2023-06-24T08:58:48;92713.31;;;26.30
70415;BMP280;57837;52.064;113.478;2023-06-24T09:01:51;92714.88;;;26.24
70415;BMP280;57837;52.064;113.478;2023-06-24T09:04:54;92711.06;;;26.27
70415;BMP280;57837;52.064;113.478;2023-06-24T09:07:58;92714.06;;;26.12
70415;BMP280;57837;52.064;113.478;2023-06-24T09:11:01;92721.06;;;26.07
70415;BMP280;57837;52.064;113.478;2023-06-24T09:14:05;92722.47;;;26.08
70415;BMP280;57837;52.064;113.478;2023-06-24T09:17:08;92721.34;;;26.11
70415;BMP280;57837;52.064;113.478;2023-06-24T09:20:13;92727.31;;;26.21
70415;BMP280;57837;52.064;113.478;2023-06-24T09:23:17;92724.59;;;26.40
70415;BMP280;57837;52.064;113.478;2023-06-24T09:26:25;92717.16;;;26.70
70415;BMP280;57837;52.064;113.478;2023-06-24T09:29:34;92711.44;;;26.64
70415;BMP280;57837;52.064;113.478;2023-06-24T09:32:38;92699.66;;;26.45
70415;BMP280;57837;52.064;113.478;2023-06-24T09:35:42;92708.59;;;26.50
70415;BMP280;57837;52.064;113.478;2023-06-24T09:38:46;92704.09;;;26.53
70415;BMP280;57837;52.064;113.478;2023-06-24T09:41:49;92705.31;;;26.40
70415;BMP280;57837;52.064;113.478;2023-06-24T09:44:54;92705.16;;;26.38
70415;BMP280;57837;52.064;113.478;2023-06-24T09:48:01;92700.34;;;26.46
70415;BMP280;57837;52.064;113.478;2023-06-24T09:51:06;92701.44;;;26.53
70415;BMP280;57837;52.064;113.478;2023-06-24T09:54:13;92694.25;;;26.43
70415;BMP280;57837;52.064;113.478;2023-06-24T09:57:23;92692.50;;;26.27
70415;BMP280;57837;52.064;113.478;2023-06-24T10:00:29;92684.78;;;26.00
70415;BMP280;57837;52.064;113.478;2023-06-24T10:03:35;92686.09;;;25.89
70415;BMP280;57837;52.064;113.478;2023-06-24T10:06:39;92676.09;;;25.78
70415;BMP280;57837;52.064;113.478;2023-06-24T10:09:43;92675.72;;;25.53
70415;BMP280;57837;52.064;113.478;2023-06-24T10:12:46;92677.59;;;25.31
70415;BMP280;57837;52.064;113.478;2023-06-24T10:15:50;92682.72;;;25.20
70415;BMP280;57837;52.064;113.478;2023-06-24T10:19:00;92687.91;;;25.27
70415;BMP280;57837;52.064;113.478;2023-06-24T10:22:09;92685.50;;;25.12
70415;BMP280;57837;52.064;113.478;2023-06-24T10:25:14;92689.72;;;25.06
70415;BMP280;57837;52.064;113.478;2023-06-24T10:28:18;92683.72;;;24.96
70415;BMP280;57837;52.064;113.478;2023-06-24T10:34:57;92687.44;;;24.73
70415;BMP280;57837;52.064;113.478;2023-06-24T10:38:01;92678.25;;;24.65
70415;BMP280;57837;52.064;113.478;2023-06-24T10:41:15;92683.38;;;24.53
70415;BMP280;57837;52.064;113.478;2023-06-24T10:44:19;92668.88;;;24.45
70415;BMP280;57837;52.064;113.478;2023-06-24T10:47:24;92671.13;;;24.48
70415;BMP280;57837;52.064;113.478;2023-06-24T10:50:27;92681.13;;;24.40
70415;BMP280;57837;52.064;113.478;2023-06-24T10:53:32;92675.78;;;24.31
70415;BMP280;57837;52.064;113.478;2023-06-24T10:56:35;92664.59;;;24.13
70415;BMP280;57837;52.064;113.478;2023-06-24T10:59:41;92664.13;;;23.97
70415;BMP280;57837;52.064;113.478;2023-06-24T11:02:44;92660.88;;;23.89
70415;BMP280;57837;52.064;113.478;2023-06-24T11:05:48;92660.75;;;23.87
70415;BMP280;57837;52.064;113.478;2023-06-24T11:08:52;92665.09;;;24.02
70415;BMP280;57837;52.064;113.478;2023-06-24T11:11:55;92665.44;;;24.15
70415;BMP280;57837;52.064;113.478;2023-06-24T11:15:02;92676.13;;;24.08
70415;BMP280;57837;52.064;113.478;2023-06-24T11:18:08;92667.25;;;23.86
70415;BMP280;57837;52.064;113.478;2023-06-24T11:21:12;92676.09;;;23.72
70415;BMP280;57837;52.064;113.478;2023-06-24T11:24:17;92674.13;;;23.62
70415;BMP280;57837;52.064;113.478;2023-06-24T11:27:25;92670.69;;;23.69
70415;BMP280;57837;52.064;113.478;2023-06-24T11:30:34;92664.28;;;23.73
70415;BMP280;57837;52.064;113.478;2023-06-24T11:33:38;92670.84;;;23.54
70415;BMP280;57837;52.064;113.478;2023-06-24T11:36:41;92682.16;;;23.38
70415;BMP280;57837;52.064;113.478;2023-06-24T11:39:44;92677.19;;;23.42
70415;BMP280;57837;52.064;113.478;2023-06-24T11:42:48;92673.56;;;23.47
70415;BMP280;57837;52.064;113.478;2023-06-24T11:45:53;92679.91;;;23.34
70415;BMP280;57837;52.064;113.478;2023-06-24T11:49:06;92682.41;;;23.15
70415;BMP280;57837;52.064;113.478;2023-06-24T11:52:09;92690.94;;;23.06
70415;BMP280;57837;52.064;113.478;2023-06-24T11:55:16;92691.66;;;23.06
70415;BMP280;57837;52.064;113.478;2023-06-24T11:58:20;92694.75;;;23.12
70415;BMP280;57837;52.064;113.478;2023-06-24T12:01:30;92697.44;;;23.05
70415;BMP280;57837;52.064;113.478;2023-06-24T12:04:34;92697.22;;;22.93
70415;BMP280;57837;52.064;113.478;2023-06-24T12:07:40;92699.03;;;22.91
70415;BMP280;57837;52.064;113.478;2023-06-24T12:10:45;92707.88;;;23.03
70415;BMP280;57837;52.064;113.478;2023-06-24T12:13:49;92706.00;;;23.13
70415;BMP280;57837;52.064;113.478;2023-06-24T12:16:53;92702.00;;;23.12
70415;BMP280;57837;52.064;113.478;2023-06-24T12:19:56;92698.78;;;22.96
70415;BMP280;57837;52.064;113.478;2023-06-24T12:23:01;92692.47;;;22.92
70415;BMP280;57837;52.064;113.478;2023-06-24T12:26:04;92688.53;;;22.83
70415;BMP280;57837;52.064;113.478;2023-06-24T12:29:07;92686.97;;;22.80
70415;BMP280;57837;52.064;113.478;2023-06-24T12:32:10;92673.78;;;22.80
70415;BMP280;57837;52.064;113.478;2023-06-24T12:35:13;92680.41;;;22.64
70415;BMP280;57837;52.064;113.478;2023-06-24T12:38:17;92671.00;;;22.53
70415;BMP280;57837;52.064;113.478;2023-06-24T12:41:20;92673.69;;;22.46
70415;BMP280;57837;52.064;113.478;2023-06-24T12:44:24;92677.50;;;22.35
70415;BMP280;57837;52.064;113.478;2023-06-24T12:47:27;92695.78;;;22.33
70415;BMP280;57837;52.064;113.478;2023-06-24T12:50:31;92713.78;;;22.20
70415;BMP280;57837;52.064;113.478;2023-06-24T12:53:35;92721.03;;;22.11
70415;BMP280;57837;52.064;113.478;2023-06-24T12:56:38;92730.78;;;22.01
70415;BMP280;57837;52.064;113.478;2023-06-24T12:59:41;92735.13;;;22.06
70415;BMP280;57837;52.064;113.478;2023-06-24T13:02:44;92750.91;;;22.14
70415;BMP280;57837;52.064;113.478;2023-06-24T13:05:47;92753.06;;;22.08
70415;BMP280;57837;52.064;113.478;2023-06-24T13:08:51;92750.13;;;21.96
70415;BMP280;57837;52.064;113.478;2023-06-24T13:11:55;92762.25;;;21.92
70415;BMP280;57837;52.064;113.478;2023-06-24T13:14:59;92765.59;;;21.92
70415;BMP280;57837;52.064;113.478;2023-06-24T13:18:03;92769.66;;;21.93
70415;BMP280;57837;52.064;113.478;2023-06-24T13:21:07;92776.66;;;21.91
70415;BMP280;57837;52.064;113.478;2023-06-24T13:24:17;92773.34;;;21.83
70415;BMP280;57837;52.064;113.478;2023-06-24T13:27:20;92777.97;;;21.82
70415;BMP280;57837;52.064;113.478;2023-06-24T13:30:23;92779.22;;;21.74
70415;BMP280;57837;52.064;113.478;2023-06-24T13:33:27;92781.16;;;21.73
70415;BMP280;57837;52.064;113.478;2023-06-24T13:36:32;92792.91;;;21.80
70415;BMP280;57837;52.064;113.478;2023-06-24T13:39:37;92799.94;;;21.77
70415;BMP280;57837;52.064;113.478;2023-06-24T13:42:40;92805.72;;;21.76
70415;BMP280;57837;52.064;113.478;2023-06-24T13:45:44;92812.06;;;21.73
70415;BMP280;57837;52.064;113.478;2023-06-24T13:48:47;92817.34;;;21.73
70415;BMP280;57837;52.064;113.478;2023-06-24T13:51:51;92814.00;;;21.72
70415;BMP280;57837;52.064;113.478;2023-06-24T13:54:55;92814.19;;;21.67
70415;BMP280;57837;52.064;113.478;2023-06-24T13:57:59;92805.22;;;21.62
70415;BMP280;57837;52.064;113.478;2023-06-24T14:01:03;92788.94;;;21.48
70415;BMP280;57837;52.064;113.478;2023-06-24T14:04:07;92775.25;;;21.35
70415;BMP280;57837;52.064;113.478;2023-06-24T14:07:11;92760.00;;;21.26
70415;BMP280;57837;52.064;113.478;2023-06-24T14:10:15;92753.34;;;21.25
70415;BMP280;57837;52.064;113.478;2023-06-24T14:13:19;92754.19;;;21.27
70415;BMP280;57837;52.064;113.478;2023-06-24T14:16:23;92744.94;;;21.19
70415;BMP280;57837;52.064;113.478;2023-06-24T14:19:27;92740.69;;;21.23
70415;BMP280;57837;52.064;113.478;2023-06-24T14:22:31;92735.44;;;21.23
70415;BMP280;57837;52.064;113.478;2023-06-24T14:25:35;92730.34;;;21.10
70415;BMP280;57837;52.064;113.478;2023-06-24T14:28:41;92718.09;;;20.97
70415;BMP280;57837;52.064;113.478;2023-06-24T14:31:44;92708.63;;;20.87
70415;BMP280;57837;52.064;113.478;2023-06-24T14:34:48;92684.59;;;20.83
70415;BMP280;57837;52.064;113.478;2023-06-24T14:37:52;92667.56;;;20.84
70415;BMP280;57837;52.064;113.478;2023-06-24T14:40:56;92658.28;;;20.83
70415;BMP280;57837;52.064;113.478;2023-06-24T14:44:00;92654.41;;;20.76
70415;BMP280;57837;52.064;113.478;2023-06-24T14:47:03;92643.91;;;20.76
70415;BMP280;57837;52.064;113.478;2023-06-24T14:50:07;92645.81;;;20.83
70415;BMP280;57837;52.064;113.478;2023-06-24T14:53:11;92649.69;;;20.90
70415;BMP280;57837;52.064;113.478;2023-06-24T14:56:14;92659.84;;;20.93
70415;BMP280;57837;52.064;113.478;2023-06-24T14:59:17;92668.63;;;20.96
70415;BMP280;57837;52.064;113.478;2023-06-24T15:02:20;92682.47;;;20.96
70415;BMP280;57837;52.064;113.478;2023-06-24T15:05:24;92679.31;;;20.90
70415;BMP280;57837;52.064;113.478;2023-06-24T15:08:29;92694.25;;;20.73
70415;BMP280;57837;52.064;113.478;2023-06-24T15:11:33;92687.25;;;20.60
70415;BMP280;57837;52.064;113.478;2023-06-24T15:14:37;92690.56;;;20.68
70415;BMP280;57837;52.064;113.478;2023-06-24T15:17:41;92676.19;;;20.69
70415;BMP280;57837;52.064;113.478;2023-06-24T15:20:48;92691.44;;;20.71
70415;BMP280;57837;52.064;113.478;2023-06-24T15:23:52;92695.28;;;20.77
70415;BMP280;57837;52.064;113.478;2023-06-24T15:26:59;92689.31;;;20.84
70415;BMP280;57837;52.064;113.478;2023-06-24T15:30:03;92688.63;;;20.84
70415;BMP280;57837;52.064;113.478;2023-06-24T15:33:07;92689.16;;;20.90
70415;BMP280;57837;52.064;113.478;2023-06-24T15:36:12;92691.94;;;20.92
70415;BMP280;57837;52.064;113.478;2023-06-24T15:39:15;92697.22;;;20.92
70415;BMP280;57837;52.064;113.478;2023-06-24T15:42:20;92698.63;;;20.93
70415;BMP280;57837;52.064;113.478;2023-06-24T15:45:23;92717.41;;;20.97
70415;BMP280;57837;52.064;113.478;2023-06-24T15:48:27;92731.06;;;20.95
70415;BMP280;57837;52.064;113.478;2023-06-24T15:51:31;92735.81;;;20.97
70415;BMP280;57837;52.064;113.478;2023-06-24T15:54:35;92743.88;;;20.91
70415;BMP280;57837;52.064;113.478;2023-06-24T15:57:39;92735.81;;;20.82
70415;BMP280;57837;52.064;113.478;2023-06-24T16:00:43;92733.00;;;20.80
70415;BMP280;57837;52.064;113.478;2023-06-24T16:03:47;92732.63;;;20.76
70415;BMP280;57837;52.064;113.478;2023-06-24T16:06:51;92737.06;;;20.73
70415;BMP280;57837;52.064;113.478;2023-06-24T16:09:55;92738.28;;;20.72
70415;BMP280;57837;52.064;113.478;2023-06-24T16:12:59;92723.88;;;20.66
70415;BMP280;57837;52.064;113.478;2023-06-24T16:16:03;92726.50;;;20.66
70415;BMP280;57837;52.064;113.478;2023-06-24T16:19:07;92730.53;;;20.59
70415;BMP280;57837;52.064;113.478;2023-06-24T16:22:11;92729.84;;;20.58
70415;BMP280;57837;52.064;113.478;2023-06-24T16:25:15;92733.88;;;20.59
70415;BMP280;57837;52.064;113.478;2023-06-24T16:28:18;92735.28;;;20.60
70415;BMP280;57837;52.064;113.478;2023-06-24T16:31:23;92740.53;;;20.53
70415;BMP280;57837;52.064;113.478;2023-06-24T16:34:26;92737.91;;;20.53
70415;BMP280;57837;52.064;113.478;2023-06-24T16:37:32;92735.59;;;20.49
70415;BMP280;57837;52.064;113.478;2023-06-24T16:40:35;92735.09;;;20.43
70415;BMP280;57837;52.064;113.478;2023-06-24T16:43:39;92726.16;;;20.39
70415;BMP280;57837;52.064;113.478;2023-06-24T16:46:43;92727.00;;;20.34
70415;BMP280;57837;52.064;113.478;2023-06-24T16:49:46;92724.03;;;20.37
70415;BMP280;57837;52.064;113.478;2023-06-24T16:52:52;92736.13;;;20.40
70415;BMP280;57837;52.064;113.478;2023-06-24T16:55:55;92732.63;;;20.45
70415;BMP280;57837;52.064;113.478;2023-06-24T16:58:58;92729.13;;;20.43
70415;BMP280;57837;52.064;113.478;2023-06-24T17:02:01;92734.56;;;20.45
70415;BMP280;57837;52.064;113.478;2023-06-24T17:05:05;92734.03;;;20.46
70415;BMP280;57837;52.064;113.478;2023-06-24T17:08:08;92741.06;;;20.44
70415;BMP280;57837;52.064;113.478;2023-06-24T17:11:12;92744.53;;;20.39
70415;BMP280;57837;52.064;113.478;2023-06-24T17:14:16;92748.19;;;20.28
70415;BMP280;57837;52.064;113.478;2023-06-24T17:17:19;92748.53;;;20.25
70415;BMP280;57837;52.064;113.478;2023-06-24T17:20:23;92742.75;;;20.19
70415;BMP280;57837;52.064;113.478;2023-06-24T17:23:26;92731.19;;;20.14
70415;BMP280;57837;52.064;113.478;2023-06-24T17:26:31;92742.41;;;20.15
70415;BMP280;57837;52.064;113.478;2023-06-24T17:29:36;92734.66;;;20.09
70415;BMP280;57837;52.064;113.478;2023-06-24T17:32:40;92739.72;;;20.07
70415;BMP280;57837;52.064;113.478;2023-06-24T17:35:43;92736.72;;;20.03
70415;BMP280;57837;52.064;113.478;2023-06-24T17:38:47;92730.25;;;20.04
70415;BMP280;57837;52.064;113.478;2023-06-24T17:41:51;92732.50;;;20.00
70415;BMP280;57837;52.064;113.478;2023-06-24T17:44:55;92720.75;;;19.93
70415;BMP280;57837;52.064;113.478;2023-06-24T17:47:58;92720.03;;;19.85
70415;BMP280;57837;52.064;113.478;2023-06-24T17:51:02;92714.41;;;19.81
70415;BMP280;57837;52.064;113.478;2023-06-24T17:54:06;92707.44;;;19.84
70415;BMP280;57837;52.064;113.478;2023-06-24T17:57:10;92718.06;;;19.78
70415;BMP280;57837;52.064;113.478;2023-06-24T18:00:14;92710.72;;;19.77
70415;BMP280;57837;52.064;113.478;2023-06-24T18:03:18;92709.50;;;19.78
70415;BMP280;57837;52.064;113.478;2023-06-24T18:06:21;92705.63;;;19.71